createdAt,value
2016-08-22T00:00:13.444Z,1000.16
2016-08-22T00:01:13.444Z,1000.17
2016-08-22T00:02:13.444Z,1000.17
2016-08-22T00:03:13.444Z,1000.2
2016-08-22T00:04:13.445Z,1000.21
2016-08-22T00:05:13.447Z,1000.18
2016-08-22T00:06:13.449Z,1000.2
2016-08-22T00:07:13.448Z,1000.22
2016-08-22T00:08:13.448Z,1000.16
2016-08-22T00:09:13.449Z,1000.19
2016-08-22T00:10:13.450Z,1000.14
2016-08-22T00:11:13.451Z,1000.21
2016-08-22T00:12:13.451Z,1000.16
2016-08-22T00:13:13.451Z,1000.15
2016-08-22T00:14:13.452Z,1000.13
2016-08-22T00:15:13.451Z,1000.15
2016-08-22T00:16:13.453Z,1000.13
2016-08-22T00:17:13.452Z,1000.15
2016-08-22T00:18:13.455Z,1000.18
2016-08-22T00:19:13.454Z,1000.15
2016-08-22T00:20:13.454Z,1000.17
2016-08-22T00:21:13.455Z,1000.23
2016-08-22T00:22:13.455Z,1000.18
2016-08-22T00:23:13.455Z,1000.14
2016-08-22T00:24:13.456Z,1000.17
2016-08-22T00:25:13.457Z,1000.17
2016-08-22T00:26:13.456Z,1000.17
2016-08-22T00:27:13.458Z,1000.12
2016-08-22T00:28:13.458Z,1000.2
2016-08-22T00:29:13.458Z,1000.15
2016-08-22T00:30:13.463Z,1000.17
2016-08-22T00:31:13.459Z,1000.15
2016-08-22T00:32:13.460Z,1000.14
2016-08-22T00:33:13.461Z,1000.18
2016-08-22T00:34:13.460Z,1000.14
2016-08-22T00:35:13.461Z,1000.17
2016-08-22T00:36:13.462Z,1000.17
2016-08-22T00:37:13.462Z,1000.18
2016-08-22T00:38:13.462Z,1000.13
2016-08-22T00:39:13.464Z,1000.16
2016-08-22T00:40:13.464Z,1000.16
2016-08-22T00:41:13.465Z,1000.17
2016-08-22T00:42:13.464Z,1000.18
2016-08-22T00:43:13.465Z,1000.2
2016-08-22T00:44:13.465Z,1000.16
2016-08-22T00:45:13.467Z,1000.22
2016-08-22T00:46:13.467Z,1000.25
2016-08-22T00:47:13.471Z,1000.2
2016-08-22T00:48:13.466Z,1000.15
2016-08-22T00:49:13.467Z,1000.2
2016-08-22T00:50:13.467Z,1000.25
2016-08-22T00:51:13.468Z,1000.26
2016-08-22T00:52:13.467Z,1000.27
2016-08-22T00:53:13.469Z,1000.22
2016-08-22T00:54:13.469Z,1000.24
2016-08-22T00:55:13.471Z,1000.22
2016-08-22T00:56:13.469Z,1000.27
2016-08-22T00:57:13.469Z,1000.22
2016-08-22T00:58:13.469Z,1000.22
2016-08-22T00:59:13.471Z,1000.18
2016-08-22T01:00:13.469Z,1000.21
2016-08-22T01:01:13.470Z,1000.21
2016-08-22T01:02:13.472Z,1000.24
2016-08-22T01:03:13.470Z,1000.23
2016-08-22T01:04:13.470Z,1000.23
2016-08-22T01:05:13.472Z,1000.21
2016-08-22T01:06:13.472Z,1000.2
2016-08-22T01:07:13.471Z,1000.2
2016-08-22T01:08:13.471Z,1000.21
2016-08-22T01:09:13.471Z,1000.24
2016-08-22T01:10:13.471Z,1000.25
2016-08-22T01:11:13.472Z,1000.22
2016-08-22T01:12:13.475Z,1000.26
2016-08-22T01:13:13.474Z,1000.29
2016-08-22T01:14:13.473Z,1000.26
2016-08-22T01:15:13.473Z,1000.25
2016-08-22T01:16:13.473Z,1000.24
2016-08-22T01:17:13.474Z,1000.24
2016-08-22T01:18:13.473Z,1000.26
2016-08-22T01:19:13.476Z,1000.28
2016-08-22T01:20:13.474Z,1000.26
2016-08-22T01:21:13.474Z,1000.28
2016-08-22T01:22:13.474Z,1000.27
2016-08-22T01:23:13.475Z,1000.3
2016-08-22T01:24:13.475Z,1000.33
2016-08-22T01:25:13.479Z,1000.34
2016-08-22T01:26:13.481Z,1000.33
2016-08-22T01:27:13.475Z,1000.28
2016-08-22T01:28:13.480Z,1000.3
2016-08-22T01:29:13.476Z,1000.26
2016-08-22T01:30:13.475Z,1000.27
2016-08-22T01:31:13.480Z,1000.25
2016-08-22T01:32:13.476Z,1000.24
2016-08-22T01:33:13.476Z,1000.29
2016-08-22T01:34:13.475Z,1000.3
2016-08-22T01:35:13.477Z,1000.32
2016-08-22T01:36:13.498Z,1000.3
2016-08-22T01:37:13.475Z,1000.27
2016-08-22T01:38:13.475Z,1000.26
2016-08-22T01:39:13.476Z,1000.27
2016-08-22T01:40:13.475Z,1000.27
2016-08-22T01:41:13.490Z,1000.27
2016-08-22T01:42:13.477Z,1000.27
2016-08-22T01:43:13.476Z,1000.25
2016-08-22T01:44:13.476Z,1000.32
2016-08-22T01:45:13.477Z,1000.26
2016-08-22T01:46:13.477Z,1000.3
2016-08-22T01:47:13.478Z,1000.27
2016-08-22T01:48:13.477Z,1000.26
2016-08-22T01:49:13.477Z,1000.25
2016-08-22T01:50:13.477Z,1000.21
2016-08-22T01:51:13.477Z,1000.23
2016-08-22T01:52:13.477Z,1000.22
2016-08-22T01:53:13.477Z,1000.23
2016-08-22T01:54:13.477Z,1000.25
2016-08-22T01:55:13.478Z,1000.23
2016-08-22T01:56:13.480Z,1000.24
2016-08-22T01:57:13.478Z,1000.22
2016-08-22T01:58:13.477Z,1000.24
2016-08-22T01:59:13.478Z,1000.28
2016-08-22T02:00:13.483Z,1000.23
2016-08-22T02:01:13.478Z,1000.25
2016-08-22T02:02:13.479Z,1000.25
2016-08-22T02:03:13.478Z,1000.29
2016-08-22T02:04:13.479Z,1000.3
2016-08-22T02:05:13.478Z,1000.36
2016-08-22T02:06:13.479Z,1000.3
2016-08-22T02:07:13.479Z,1000.34
2016-08-22T02:08:13.480Z,1000.35
2016-08-22T02:09:13.478Z,1000.35
2016-08-22T02:10:13.479Z,1000.39
2016-08-22T02:11:13.479Z,1000.41
2016-08-22T02:12:13.478Z,1000.38
2016-08-22T02:13:13.478Z,1000.36
2016-08-22T02:14:13.488Z,1000.44
2016-08-22T02:15:13.478Z,1000.47
2016-08-22T02:16:13.478Z,1000.5
2016-08-22T02:17:13.478Z,1000.48
2016-08-22T02:18:13.479Z,1000.51
2016-08-22T02:19:13.479Z,1000.52
2016-08-22T02:20:13.478Z,1000.51
2016-08-22T02:21:13.486Z,1000.55
2016-08-22T02:22:13.484Z,1000.51
2016-08-22T02:23:13.479Z,1000.49
2016-08-22T02:24:13.479Z,1000.49
2016-08-22T02:25:13.479Z,1000.52
2016-08-22T02:26:13.479Z,1000.5
2016-08-22T02:27:13.479Z,1000.53
2016-08-22T02:28:13.482Z,1000.52
2016-08-22T02:29:13.480Z,1000.52
2016-08-22T02:30:13.479Z,1000.48
2016-08-22T02:31:13.480Z,1000.48
2016-08-22T02:32:13.479Z,1000.52
2016-08-22T02:33:13.482Z,1000.58
2016-08-22T02:34:13.477Z,1000.64
2016-08-22T02:35:13.480Z,1000.64
2016-08-22T02:36:13.478Z,1000.63
2016-08-22T02:37:13.480Z,1000.62
2016-08-22T02:38:13.477Z,1000.62
2016-08-22T02:39:13.480Z,1000.6
2016-08-22T02:40:13.481Z,1000.64
2016-08-22T02:41:13.478Z,1000.69
2016-08-22T02:42:13.478Z,1000.71
2016-08-22T02:43:13.479Z,1000.79
2016-08-22T02:44:13.479Z,1000.78
2016-08-22T02:45:13.479Z,1000.7
2016-08-22T02:46:13.478Z,1000.68
2016-08-22T02:47:13.480Z,1000.7
2016-08-22T02:48:13.480Z,1000.68
2016-08-22T02:49:13.480Z,1000.71
2016-08-22T02:50:13.480Z,1000.7
2016-08-22T02:51:13.479Z,1000.71
2016-08-22T02:52:13.481Z,1000.72
2016-08-22T02:53:13.477Z,1000.71
2016-08-22T02:54:13.477Z,1000.69
2016-08-22T02:55:13.477Z,1000.7
2016-08-22T02:56:13.481Z,1000.71
2016-08-22T02:57:13.481Z,1000.77
2016-08-22T02:58:13.477Z,1000.75
2016-08-22T02:59:13.478Z,1000.77
2016-08-22T03:00:13.486Z,1000.75
2016-08-22T03:01:13.478Z,1000.77
2016-08-22T03:02:13.478Z,1000.8
2016-08-22T03:03:13.478Z,1000.78
2016-08-22T03:04:13.479Z,1000.8
2016-08-22T03:05:13.480Z,1000.8
2016-08-22T03:06:13.482Z,1000.78
2016-08-22T03:07:13.477Z,1000.8
2016-08-22T03:08:13.479Z,1000.78
2016-08-22T03:09:13.483Z,1000.77
2016-08-22T03:10:13.480Z,1000.8
2016-08-22T03:11:13.479Z,1000.77
2016-08-22T03:12:13.485Z,1000.77
2016-08-22T03:13:13.484Z,1000.71
2016-08-22T03:14:13.495Z,1000.74
2016-08-22T03:15:13.486Z,1000.72
2016-08-22T03:16:13.481Z,1000.71
2016-08-22T03:17:13.489Z,1000.73
2016-08-22T03:18:13.484Z,1000.74
2016-08-22T03:19:13.490Z,1000.71
2016-08-22T03:20:13.490Z,1000.74
2016-08-22T03:21:13.484Z,1000.73
2016-08-22T03:22:13.491Z,1000.75
2016-08-22T03:23:13.487Z,1000.75
2016-08-22T03:24:13.493Z,1000.73
2016-08-22T03:25:13.493Z,1000.75
2016-08-22T03:26:13.486Z,1000.72
2016-08-22T03:27:13.487Z,1000.77
2016-08-22T03:28:13.487Z,1000.72
2016-08-22T03:29:13.492Z,1000.76
2016-08-22T03:30:13.495Z,1000.7
2016-08-22T03:31:13.490Z,1000.77
2016-08-22T03:32:13.501Z,1000.75
2016-08-22T03:33:13.497Z,1000.73
2016-08-22T03:34:13.489Z,1000.78
2016-08-22T03:35:13.499Z,1000.71
2016-08-22T03:36:13.500Z,1000.72
2016-08-22T03:37:13.493Z,1000.74
2016-08-22T03:38:13.500Z,1000.72
2016-08-22T03:39:13.501Z,1000.71
2016-08-22T03:40:13.502Z,1000.73
2016-08-22T03:41:13.502Z,1000.75
2016-08-22T03:42:13.495Z,1000.72
2016-08-22T03:43:13.497Z,1000.76
2016-08-22T03:44:13.503Z,1000.76
2016-08-22T03:45:13.501Z,1000.77
2016-08-22T03:46:13.503Z,1000.79
2016-08-22T03:47:13.498Z,1000.81
2016-08-22T03:48:13.499Z,1000.79
2016-08-22T03:49:13.498Z,1000.82
2016-08-22T03:50:13.505Z,1000.81
2016-08-22T03:51:13.508Z,1000.84
2016-08-22T03:52:13.500Z,1000.84
2016-08-22T03:53:13.499Z,1000.87
2016-08-22T03:54:13.510Z,1000.81
2016-08-22T03:55:13.501Z,1000.81
2016-08-22T03:56:13.503Z,1000.81
2016-08-22T03:57:13.510Z,1000.79
2016-08-22T03:58:13.502Z,1000.85
2016-08-22T03:59:13.512Z,1000.84
2016-08-22T04:00:13.503Z,1000.8
2016-08-22T04:01:13.506Z,1000.8
2016-08-22T04:02:13.518Z,1000.83
2016-08-22T04:03:13.505Z,1000.82
2016-08-22T04:04:13.506Z,1000.8
2016-08-22T04:05:13.515Z,1000.85
2016-08-22T04:06:13.507Z,1000.86
2016-08-22T04:07:13.509Z,1000.85
2016-08-22T04:08:13.524Z,1000.87
2016-08-22T04:09:13.514Z,1000.91
2016-08-22T04:10:13.510Z,1000.92
2016-08-22T04:11:13.510Z,1000.86
2016-08-22T04:12:13.511Z,1000.92
2016-08-22T04:13:13.519Z,1000.86
2016-08-22T04:14:13.513Z,1000.91
2016-08-22T04:15:13.522Z,1000.88
2016-08-22T04:16:13.520Z,1000.92
2016-08-22T04:17:13.521Z,1000.87
2016-08-22T04:18:13.515Z,1000.88
2016-08-22T04:19:13.516Z,1000.88
2016-08-22T04:20:13.521Z,1000.89
2016-08-22T04:21:13.523Z,1000.92
2016-08-22T04:22:13.523Z,1000.94
2016-08-22T04:23:13.526Z,1000.93
2016-08-22T04:24:13.523Z,1000.93
2016-08-22T04:25:13.523Z,1000.98
2016-08-22T04:26:13.520Z,1000.98
2016-08-22T04:27:13.526Z,1001.02
2016-08-22T04:28:13.521Z,1001.02
2016-08-22T04:29:13.522Z,1001.04
2016-08-22T04:30:13.522Z,1001.08
2016-08-22T04:31:13.531Z,1001.09
2016-08-22T04:32:13.524Z,1001.11
2016-08-22T04:33:13.524Z,1001.04
2016-08-22T04:34:13.530Z,1001.1
2016-08-22T04:35:13.529Z,1001.04
2016-08-22T04:36:13.526Z,1001.04
2016-08-22T04:37:13.531Z,1001.08
2016-08-22T04:38:13.531Z,1001.1
2016-08-22T04:39:13.533Z,1001.09
2016-08-22T04:40:13.533Z,1001.13
2016-08-22T04:41:13.545Z,1001.13
2016-08-22T04:42:13.529Z,1001.23
2016-08-22T04:43:13.542Z,1001.22
2016-08-22T04:44:13.537Z,1001.2
2016-08-22T04:45:13.536Z,1001.23
2016-08-22T04:46:13.532Z,1001.22
2016-08-22T04:47:13.532Z,1001.22
2016-08-22T04:48:13.537Z,1001.32
2016-08-22T04:49:13.541Z,1001.33
2016-08-22T04:50:13.540Z,1001.38
2016-08-22T04:51:13.534Z,1001.34
2016-08-22T04:52:13.536Z,1001.37
2016-08-22T04:53:13.540Z,1001.36
2016-08-22T04:54:13.536Z,1001.36
2016-08-22T04:55:13.537Z,1001.4
2016-08-22T04:56:13.538Z,1001.4
2016-08-22T04:57:13.540Z,1001.43
2016-08-22T04:58:13.550Z,1001.42
2016-08-22T04:59:13.547Z,1001.47
2016-08-22T05:00:13.548Z,1001.47
2016-08-22T05:01:13.539Z,1001.49
2016-08-22T05:02:13.539Z,1001.54
2016-08-22T05:03:13.551Z,1001.56
2016-08-22T05:04:13.540Z,1001.59
2016-08-22T05:05:13.544Z,1001.63
2016-08-22T05:06:13.548Z,1001.64
2016-08-22T05:07:13.551Z,1001.67
2016-08-22T05:08:13.544Z,1001.65
2016-08-22T05:09:13.542Z,1001.71
2016-08-22T05:10:13.542Z,1001.66
2016-08-22T05:11:13.557Z,1001.66
2016-08-22T05:12:13.542Z,1001.64
2016-08-22T05:13:13.544Z,1001.62
2016-08-22T05:14:13.552Z,1001.62
2016-08-22T05:15:13.544Z,1001.67
2016-08-22T05:16:13.555Z,1001.66
2016-08-22T05:17:13.553Z,1001.63
2016-08-22T05:18:13.549Z,1001.7
2016-08-22T05:19:13.559Z,1001.71
2016-08-22T05:20:13.546Z,1001.72
2016-08-22T05:21:13.547Z,1001.73
2016-08-22T05:22:13.557Z,1001.75
2016-08-22T05:23:13.555Z,1001.76
2016-08-22T05:24:13.553Z,1001.78
2016-08-22T05:25:13.558Z,1001.77
2016-08-22T05:26:13.557Z,1001.8
2016-08-22T05:27:13.550Z,1001.83
2016-08-22T05:28:13.558Z,1001.82
2016-08-22T05:29:13.554Z,1001.77
2016-08-22T05:30:13.552Z,1001.78
2016-08-22T05:31:13.553Z,1001.76
2016-08-22T05:32:13.559Z,1001.76
2016-08-22T05:33:13.556Z,1001.81
2016-08-22T05:34:13.553Z,1001.81
2016-08-22T05:35:13.556Z,1001.82
2016-08-22T05:36:13.556Z,1001.87
2016-08-22T05:37:13.555Z,1001.86
2016-08-22T05:38:13.557Z,1001.88
2016-08-22T05:39:13.557Z,1001.88
2016-08-22T05:40:13.559Z,1001.88
2016-08-22T05:41:13.558Z,1001.87
2016-08-22T05:42:13.558Z,1001.84
2016-08-22T05:43:13.574Z,1001.87
2016-08-22T05:44:13.559Z,1001.91
2016-08-22T05:45:13.559Z,1001.9
2016-08-22T05:46:13.564Z,1001.97
2016-08-22T05:47:13.564Z,1002
2016-08-22T05:48:13.563Z,1001.97
2016-08-22T05:49:13.563Z,1001.98
2016-08-22T05:50:13.575Z,1002.02
2016-08-22T05:51:13.564Z,1001.99
2016-08-22T05:52:13.565Z,1002.02
2016-08-22T05:53:13.572Z,1002.02
2016-08-22T05:54:13.567Z,1002
2016-08-22T05:55:13.568Z,1002.04
2016-08-22T05:56:13.569Z,1002.02
2016-08-22T05:57:13.570Z,1002.02
2016-08-22T05:58:13.571Z,1002.03
2016-08-22T05:59:13.571Z,1002.03
2016-08-22T06:00:13.573Z,1002.05
2016-08-22T06:01:13.573Z,1002.02
2016-08-22T06:02:13.578Z,1002.04
2016-08-22T06:03:13.575Z,1002.05
2016-08-22T06:04:13.576Z,1002.04
2016-08-22T06:05:13.578Z,1002.01
2016-08-22T06:06:13.578Z,1002.01
2016-08-22T06:07:13.580Z,1002.05
2016-08-22T06:08:13.581Z,1002.1
2016-08-22T06:09:13.585Z,1002.12
2016-08-22T06:10:13.582Z,1002.12
2016-08-22T06:11:13.584Z,1002.12
2016-08-22T06:12:13.586Z,1002.15
2016-08-22T06:13:13.589Z,1002.16
2016-08-22T06:14:13.588Z,1002.17
2016-08-22T06:15:13.590Z,1002.13
2016-08-22T06:16:13.592Z,1002.1
2016-08-22T06:17:13.601Z,1002.1
2016-08-22T06:18:13.595Z,1002.13
2016-08-22T06:19:13.598Z,1002.11
2016-08-22T06:20:13.599Z,1002.15
2016-08-22T06:21:13.600Z,1002.12
2016-08-22T06:22:13.604Z,1002.08
2016-08-22T06:23:13.607Z,1002.13
2016-08-22T06:24:13.609Z,1002.18
2016-08-22T06:25:13.610Z,1002.14
2016-08-22T06:26:13.611Z,1002.14
2016-08-22T06:27:13.623Z,1002.1
2016-08-22T06:28:13.627Z,1002.1
2016-08-22T06:29:13.672Z,1002.09
2016-08-22T06:30:13.676Z,1002.04
2016-08-22T06:31:13.629Z,1002.03
2016-08-22T06:32:13.626Z,1002.03
2016-08-22T06:33:13.628Z,1002.07
2016-08-22T06:34:13.631Z,1002.06
2016-08-22T06:35:13.640Z,1002.15
2016-08-22T06:36:13.653Z,1002.03
2016-08-22T06:37:13.647Z,1002.11
2016-08-22T06:38:13.649Z,1002.15
2016-08-22T06:39:13.645Z,1002.27
2016-08-22T06:40:13.650Z,1002.29
2016-08-22T06:41:13.652Z,1002.31
2016-08-22T06:42:13.656Z,1002.24
2016-08-22T06:43:13.661Z,1002.25
2016-08-22T06:44:13.668Z,1002.25
2016-08-22T06:45:13.668Z,1002.26
2016-08-22T06:46:13.673Z,1002.27
2016-08-22T06:47:13.681Z,1002.29
2016-08-22T06:48:13.682Z,1002.22
2016-08-22T06:49:13.689Z,1002.21
2016-08-22T06:50:13.692Z,1002.17
2016-08-22T06:51:13.697Z,1002.2
2016-08-22T06:52:13.715Z,1002.1
2016-08-22T06:53:13.714Z,1002.1
2016-08-22T06:54:13.721Z,1002.07
2016-08-22T06:55:13.721Z,1002.17
2016-08-22T06:56:13.727Z,1002.16
2016-08-22T06:57:13.731Z,1002.14
2016-08-22T06:58:13.737Z,1002.15
2016-08-22T06:59:13.743Z,1002.19
2016-08-22T07:00:13.751Z,1002.11
2016-08-22T07:01:13.754Z,1002.18
2016-08-22T07:02:13.761Z,1002.13
2016-08-22T07:03:13.766Z,1002.14
2016-08-22T07:04:13.774Z,1002.18
2016-08-22T07:05:13.779Z,1002.23
2016-08-22T07:06:13.795Z,1002.22
2016-08-22T07:07:13.794Z,1002.23
2016-08-22T07:08:13.797Z,1002.21
2016-08-22T07:09:13.810Z,1002.19
2016-08-22T07:10:13.813Z,1002.19
2016-08-22T07:11:13.817Z,1002.19
2016-08-22T07:12:13.824Z,1002.19
2016-08-22T07:13:13.830Z,1002.19
2016-08-22T07:14:13.836Z,1002.21
2016-08-22T07:15:13.853Z,1002.21
2016-08-22T07:16:13.851Z,1002.24
2016-08-22T07:17:13.859Z,1002.23
2016-08-22T07:18:13.876Z,1002.26
2016-08-22T07:19:13.876Z,1002.17
2016-08-22T07:20:13.891Z,1002.18
2016-08-22T07:21:13.884Z,1002.2
2016-08-22T07:22:13.891Z,1002.15
2016-08-22T07:23:13.897Z,1002.19
2016-08-22T07:24:13.904Z,1002.16
2016-08-22T07:25:13.911Z,1002.16
2016-08-22T07:26:13.918Z,1002.14
2016-08-22T07:27:13.932Z,1002.16
2016-08-22T07:28:13.932Z,1002.15
2016-08-22T07:29:13.939Z,1002.18
2016-08-22T07:30:13.946Z,1002.19
2016-08-22T07:31:13.954Z,1002.21
2016-08-22T07:32:13.961Z,1002.21
2016-08-22T07:33:13.967Z,1002.21
2016-08-22T07:34:13.973Z,1002.21
2016-08-22T07:35:13.980Z,1002.22
2016-08-22T07:36:13.991Z,1002.31
2016-08-22T07:37:13.993Z,1002.27
2016-08-22T07:38:14.001Z,1002.27
2016-08-22T07:39:14.006Z,1002.27
2016-08-22T07:40:14.010Z,1002.33
2016-08-22T07:41:14.014Z,1002.34
2016-08-22T07:42:14.020Z,1002.39
2016-08-22T07:43:14.026Z,1002.36
2016-08-22T07:44:14.033Z,1002.33
2016-08-22T07:45:14.035Z,1002.4
2016-08-22T07:46:14.041Z,1002.45
2016-08-22T07:47:14.047Z,1002.33
2016-08-22T07:48:14.072Z,1002.33
2016-08-22T07:49:14.067Z,1002.36
2016-08-22T07:50:14.069Z,1002.34
2016-08-22T07:51:14.068Z,1002.37
2016-08-22T07:52:14.073Z,1002.37
2016-08-22T07:53:14.078Z,1002.37
2016-08-22T07:54:14.082Z,1002.42
2016-08-22T07:55:14.087Z,1002.41
2016-08-22T07:56:14.092Z,1002.43
2016-08-22T07:57:14.096Z,1002.48
2016-08-22T07:58:14.101Z,1002.44
2016-08-22T07:59:14.106Z,1002.42
2016-08-22T08:00:14.112Z,1002.43
2016-08-22T08:01:14.117Z,1002.41
2016-08-22T08:02:14.135Z,1002.38
2016-08-22T08:03:14.132Z,1002.38
2016-08-22T08:04:14.145Z,1002.4
2016-08-22T08:05:14.135Z,1002.37
2016-08-22T08:06:14.142Z,1002.39
2016-08-22T08:07:14.144Z,1002.32
2016-08-22T08:08:14.149Z,1002.33
2016-08-22T08:09:14.155Z,1002.32
2016-08-22T08:10:14.158Z,1002.3
2016-08-22T08:11:14.163Z,1002.3
2016-08-22T08:12:14.170Z,1002.26
2016-08-22T08:13:14.174Z,1002.29
2016-08-22T08:14:14.177Z,1002.28
2016-08-22T08:15:14.182Z,1002.32
2016-08-22T08:16:14.189Z,1002.27
2016-08-22T08:17:14.192Z,1002.27
2016-08-22T08:18:14.198Z,1002.28
2016-08-22T08:19:14.202Z,1002.31
2016-08-22T08:20:14.209Z,1002.25
2016-08-22T08:21:14.213Z,1002.3
2016-08-22T08:22:14.218Z,1002.3
2016-08-22T08:23:14.224Z,1002.35
2016-08-22T08:24:14.229Z,1002.35
2016-08-22T08:25:14.234Z,1002.44
2016-08-22T08:26:14.240Z,1002.41
2016-08-22T08:27:14.245Z,1002.39
2016-08-22T08:28:14.250Z,1002.42
2016-08-22T08:29:14.257Z,1002.45
2016-08-22T08:30:14.262Z,1002.44
2016-08-22T08:31:14.267Z,1002.46
2016-08-22T08:32:14.274Z,1002.43
2016-08-22T08:33:14.278Z,1002.46
2016-08-22T08:34:14.284Z,1002.48
2016-08-22T08:35:14.291Z,1002.49
2016-08-22T08:36:14.298Z,1002.49
2016-08-22T08:37:14.307Z,1002.49
2016-08-22T08:38:14.309Z,1002.56
2016-08-22T08:39:14.315Z,1002.54
2016-08-22T08:40:14.321Z,1002.52
2016-08-22T08:41:14.327Z,1002.55
2016-08-22T08:42:14.334Z,1002.56
2016-08-22T08:43:14.339Z,1002.49
2016-08-22T08:44:14.346Z,1002.51
2016-08-22T08:45:14.357Z,1002.52
2016-08-22T08:46:14.359Z,1002.47
2016-08-22T08:47:14.364Z,1002.47
2016-08-22T08:48:14.371Z,1002.42
2016-08-22T08:49:14.377Z,1002.39
2016-08-22T08:50:14.391Z,1002.45
2016-08-22T08:51:14.390Z,1002.47
2016-08-22T08:52:14.396Z,1002.5
2016-08-22T08:53:14.402Z,1002.42
2016-08-22T08:54:14.407Z,1002.43
2016-08-22T08:55:14.413Z,1002.48
2016-08-22T08:56:14.419Z,1002.47
2016-08-22T08:57:14.424Z,1002.53
2016-08-22T08:58:14.429Z,1002.58
2016-08-22T08:59:14.433Z,1002.6
2016-08-22T09:00:14.439Z,1002.57
2016-08-22T09:01:14.446Z,1002.57
2016-08-22T09:02:14.455Z,1002.61
2016-08-22T09:03:14.457Z,1002.56
2016-08-22T09:04:14.460Z,1002.53
2016-08-22T09:05:14.466Z,1002.44
2016-08-22T09:06:14.469Z,1002.42
2016-08-22T09:07:14.473Z,1002.37
2016-08-22T09:08:14.478Z,1002.42
2016-08-22T09:09:14.482Z,1002.38
2016-08-22T09:10:14.507Z,1002.4
2016-08-22T09:11:14.499Z,1002.32
2016-08-22T09:12:14.506Z,1002.27
2016-08-22T09:13:14.507Z,1002.38
2016-08-22T09:14:14.508Z,1002.43
2016-08-22T09:15:14.514Z,1002.42
2016-08-22T09:16:14.515Z,1002.42
2016-08-22T09:17:14.523Z,1002.37
2016-08-22T09:18:14.522Z,1002.35
2016-08-22T09:19:14.527Z,1002.37
2016-08-22T09:20:14.530Z,1002.41
2016-08-22T09:21:14.534Z,1002.45
2016-08-22T09:22:14.538Z,1002.46
2016-08-22T09:23:14.543Z,1002.59
2016-08-22T09:24:14.547Z,1002.63
2016-08-22T09:25:14.571Z,1002.6
2016-08-22T09:26:14.564Z,1002.64
2016-08-22T09:27:14.566Z,1002.73
2016-08-22T09:28:14.563Z,1002.69
2016-08-22T09:29:14.575Z,1002.68
2016-08-22T09:30:14.577Z,1002.61
2016-08-22T09:31:14.577Z,1002.53
2016-08-22T09:32:14.581Z,1002.55
2016-08-22T09:33:14.584Z,1002.55
2016-08-22T09:34:14.589Z,1002.47
2016-08-22T09:35:14.604Z,1002.52
2016-08-22T09:36:14.602Z,1002.42
2016-08-22T09:37:14.610Z,1002.45
2016-08-22T09:38:14.614Z,1002.35
2016-08-22T09:39:14.614Z,1002.4
2016-08-22T09:40:14.622Z,1002.4
2016-08-22T09:41:14.624Z,1002.38
2016-08-22T09:42:14.625Z,1002.43
2016-08-22T09:43:14.631Z,1002.46
2016-08-22T09:44:14.633Z,1002.48
2016-08-22T09:45:14.635Z,1002.53
2016-08-22T09:46:14.651Z,1002.5
2016-08-22T09:47:14.645Z,1002.5
2016-08-22T09:48:14.656Z,1002.41
2016-08-22T09:49:14.652Z,1002.32
2016-08-22T09:50:14.656Z,1002.31
2016-08-22T09:51:14.664Z,1002.3
2016-08-22T09:52:14.666Z,1002.22
2016-08-22T09:53:14.670Z,1002.23
2016-08-22T09:54:14.674Z,1002.25
2016-08-22T09:55:14.679Z,1002.24
2016-08-22T09:56:14.683Z,1002.28
2016-08-22T09:57:14.689Z,1002.29
2016-08-22T09:58:14.692Z,1002.3
2016-08-22T09:59:14.697Z,1002.32
2016-08-22T10:00:14.702Z,1002.28
2016-08-22T10:01:14.706Z,1002.28
2016-08-22T10:02:14.710Z,1002.27
2016-08-22T10:03:14.714Z,1002.27
2016-08-22T10:04:14.718Z,1002.27
2016-08-22T10:05:14.766Z,1002.31
2016-08-22T10:06:14.729Z,1002.4
2016-08-22T10:07:14.732Z,1002.43
2016-08-22T10:08:14.736Z,1002.4
2016-08-22T10:09:14.740Z,1002.49
2016-08-22T10:10:14.785Z,1002.47
2016-08-22T10:11:14.750Z,1002.51
2016-08-22T10:12:14.755Z,1002.49
2016-08-22T10:13:14.758Z,1002.5
2016-08-22T10:14:14.763Z,1002.47
2016-08-22T10:15:14.767Z,1002.51
2016-08-22T10:16:14.771Z,1002.44
2016-08-22T10:17:14.777Z,1002.44
2016-08-22T10:18:14.780Z,1002.43
2016-08-22T10:19:14.789Z,1002.4
2016-08-22T10:20:14.842Z,1002.38
2016-08-22T10:21:14.795Z,1002.38
2016-08-22T10:22:14.799Z,1002.37
2016-08-22T10:23:14.803Z,1002.36
2016-08-22T10:24:14.808Z,1002.41
2016-08-22T10:25:14.812Z,1002.36
2016-08-22T10:26:14.817Z,1002.36
2016-08-22T10:27:14.821Z,1002.33
2016-08-22T10:28:14.826Z,1002.31
2016-08-22T10:29:14.831Z,1002.38
2016-08-22T10:30:14.835Z,1002.4
2016-08-22T10:31:14.839Z,1002.4
2016-08-22T10:32:14.845Z,1002.35
2016-08-22T10:33:14.849Z,1002.34
2016-08-22T10:34:14.853Z,1002.34
2016-08-22T10:35:14.864Z,1002.29
2016-08-22T10:36:14.863Z,1002.27
2016-08-22T10:37:14.871Z,1002.23
2016-08-22T10:38:14.872Z,1002.23
2016-08-22T10:39:14.879Z,1002.22
2016-08-22T10:40:14.881Z,1002.27
2016-08-22T10:41:14.886Z,1002.28
2016-08-22T10:42:14.890Z,1002.29
2016-08-22T10:43:14.895Z,1002.28
2016-08-22T10:44:14.900Z,1002.22
2016-08-22T10:45:14.904Z,1002.23
2016-08-22T10:46:14.909Z,1002.3
2016-08-22T10:47:14.925Z,1002.26
2016-08-22T10:48:14.921Z,1002.26
2016-08-22T10:49:14.923Z,1002.24
2016-08-22T10:50:14.927Z,1002.29
2016-08-22T10:51:14.934Z,1002.24
2016-08-22T10:52:14.937Z,1002.23
2016-08-22T10:53:14.941Z,1002.19
2016-08-22T10:54:14.946Z,1002.22
2016-08-22T10:55:14.952Z,1002.12
2016-08-22T10:56:14.955Z,1002.14
2016-08-22T10:57:14.960Z,1002.17
2016-08-22T10:58:14.966Z,1002.1
2016-08-22T10:59:14.969Z,1002.16
2016-08-22T11:00:14.972Z,1002.18
2016-08-22T11:01:14.992Z,1002.17
2016-08-22T11:02:15.003Z,1002.16
2016-08-22T11:03:14.994Z,1002.11
2016-08-22T11:04:15.000Z,1002.12
2016-08-22T11:05:14.997Z,1002.06
2016-08-22T11:06:15.001Z,1002.03
2016-08-22T11:07:15.006Z,1001.97
2016-08-22T11:08:15.010Z,1002.01
2016-08-22T11:09:15.015Z,1001.97
2016-08-22T11:10:15.027Z,1002.04
2016-08-22T11:11:15.026Z,1002.04
2016-08-22T11:12:15.030Z,1002.1
2016-08-22T11:13:15.036Z,1002.1
2016-08-22T11:14:15.039Z,1002.1
2016-08-22T11:15:15.044Z,1002.09
2016-08-22T11:16:15.050Z,1002.07
2016-08-22T11:17:15.059Z,1002.08
2016-08-22T11:18:15.058Z,1002.04
2016-08-22T11:19:15.062Z,1002.03
2016-08-22T11:20:15.066Z,1002.08
2016-08-22T11:21:15.070Z,1002.12
2016-08-22T11:22:15.075Z,1002.09
2016-08-22T11:23:15.080Z,1002.14
2016-08-22T11:24:15.084Z,1002.07
2016-08-22T11:25:15.089Z,1002.1
2016-08-22T11:26:15.094Z,1002.13
2016-08-22T11:27:15.097Z,1002.1
2016-08-22T11:28:15.101Z,1002.14
2016-08-22T11:29:15.108Z,1002.13
2016-08-22T11:30:15.110Z,1002.15
2016-08-22T11:31:15.114Z,1002.22
2016-08-22T11:32:15.119Z,1002.2
2016-08-22T11:33:15.123Z,1002.26
2016-08-22T11:34:15.128Z,1002.22
2016-08-22T11:35:15.132Z,1002.24
2016-08-22T11:36:15.138Z,1002.2
2016-08-22T11:37:15.151Z,1002.23
2016-08-22T11:38:15.155Z,1002.24
2016-08-22T11:39:15.153Z,1002.23
2016-08-22T11:40:15.159Z,1002.22
2016-08-22T11:41:15.158Z,1002.17
2016-08-22T11:42:15.163Z,1002.11
2016-08-22T11:43:15.169Z,1002.17
2016-08-22T11:44:15.172Z,1002.16
2016-08-22T11:45:15.213Z,1002.14
2016-08-22T11:46:15.182Z,1002.08
2016-08-22T11:47:15.185Z,1002.02
2016-08-22T11:48:15.191Z,1002.02
2016-08-22T11:49:15.196Z,1001.99
2016-08-22T11:50:15.198Z,1002.01
2016-08-22T11:51:15.204Z,1001.92
2016-08-22T11:52:15.218Z,1001.97
2016-08-22T11:53:15.219Z,1001.99
2016-08-22T11:54:15.221Z,1001.98
2016-08-22T11:55:15.231Z,1001.95
2016-08-22T11:56:15.231Z,1001.9
2016-08-22T11:57:15.235Z,1001.9
2016-08-22T11:58:15.242Z,1001.87
2016-08-22T11:59:15.239Z,1001.91
2016-08-22T12:00:15.249Z,1001.9
2016-08-22T12:01:15.250Z,1001.94
2016-08-22T12:02:15.248Z,1001.94
2016-08-22T12:03:15.256Z,1001.96
2016-08-22T12:04:15.264Z,1001.98
2016-08-22T12:05:15.268Z,1002
2016-08-22T12:06:15.271Z,1002
2016-08-22T12:07:15.272Z,1001.98
2016-08-22T12:08:15.283Z,1001.99